Date,TemperatureHighF,TemperatureAvgF,TemperatureLowF,DewpointHighF,DewpointAvgF,DewpointLowF,HumidityHigh,HumidityAvg,HumidityLow,PressureMaxIn,PressureMinIn,WindSpeedMaxMPH,WindSpeedAvgMPH,GustSpeedMaxMPH,PrecipitationSumIn
2014-1-1,52.0,39.8,30.0,36.7,31.4,26.8,88,74,44,30.44,30.21,3,0,3,0.00
2014-1-2,46.8,44.6,41.0,45.4,41.8,36.5,95,90,81,30.22,29.76,7,2,7,0.20
2014-1-3,57.0,34.7,20.8,47.7,18.9,-0.1,95,59,21,30.13,29.58,8,3,8,0.21
2014-1-4,37.6,28.8,18.0,20.7,12.7,5.1,79,54,27,30.19,29.95,6,1,6,0.00
2014-1-5,43.0,38.8,34.3,41.1,35.2,20.7,95,87,55,29.95,29.49,4,1,4,0.07
2014-1-6,44.1,32.5,12.4,42.6,15.0,-15.3,96,54,21,29.99,29.43,17,6,17,0.12
2014-1-7,30.9,17.2,6.4,7.2,-3.1,-9.7,69,42,21,30.20,29.98,9,2,9,0.00
2014-1-8,50.4,27.5,12.9,18.1,10.3,6.3,74,53,21,30.26,30.15,5,1,5,0.00
2014-1-9,53.2,36.4,21.0,33.5,18.5,11.0,78,53,21,30.24,30.13,6,1,6,0.00
2014-1-10,48.4,44.3,38.7,46.7,42.1,27.5,96,92,57,30.14,29.76,7,2,7,0.60
2014-1-11,59.9,51.7,46.4,58.1,48.6,35.8,97,90,58,29.77,29.38,16,2,16,1.37
2014-1-12,59.9,45.3,32.2,37.9,32.7,28.5,87,64,32,29.89,29.57,9,2,9,0.00
2014-1-13,59.5,43.6,30.2,44.4,35.2,27.3,95,75,39,29.87,29.64,9,1,9,0.12
2014-1-14,62.8,49.0,34.9,49.0,38.8,22.2,96,74,23,29.70,29.52,9,2,9,0.17
2014-1-15,55.2,38.7,0.0,36.9,28.6,21.9,92,69,34,29.93,29.59,9,2,9,0.00
2014-1-16,47.7,32.8,21.4,25.1,18.3,9.4,86,60,24,30.01,29.90,9,1,9,0.00
2014-1-17,53.4,37.5,23.4,30.5,20.4,12.1,83,54,21,29.97,29.81,15,3,15,0.00
2014-1-18,44.1,32.8,25.9,18.4,10.8,5.7,68,41,24,30.09,29.92,14,4,14,0.00
2014-1-19,57.7,41.4,27.0,28.5,22.2,15.6,75,49,27,29.97,29.88,12,2,12,0.00
2014-1-20,67.5,48.9,33.4,31.7,26.2,20.2,75,45,20,29.92,29.79,13,3,13,0.00
2014-1-21,60.8,41.2,29.1,35.1,26.8,16.7,85,60,23,29.83,29.56,18,4,18,0.00
2014-1-22,32.4,21.8,17.2,20.1,9.7,-4.9,75,63,23,29.99,29.83,6,1,7,0.00
2014-1-23,42.8,30.0,16.9,14.9,4.9,-6.6,77,38,20,30.31,29.98,12,3,12,0.00
2014-1-24,34.7,22.0,12.4,6.2,-4.4,-15.6,64,32,20,30.50,30.15,8,2,8,0.00
2014-1-25,40.8,28.6,13.3,17.0,7.6,-1.0,71,43,21,30.16,29.66,16,4,16,0.00
2014-1-26,54.7,41.4,23.5,31.6,24.2,16.3,79,52,31,30.00,29.79,14,3,14,0.00
2014-1-27,65.1,48.7,37.4,36.7,32.5,22.0,78,56,32,30.06,29.86,13,2,13,0.00
2014-1-28,38.7,30.5,24.3,22.1,10.1,-1.0,83,48,21,30.27,30.04,9,3,9,0.00
2014-1-29,35.6,26.1,15.8,16.6,8.2,-6.0,73,51,22,30.36,30.17,9,1,9,0.02
2014-1-30,44.1,30.2,10.4,20.5,11.7,5.0,78,51,24,30.40,30.23,8,1,8,0.00
2014-1-31,60.8,33.2,16.2,26.8,15.9,10.9,86,57,19,30.25,30.15,8,1,8,0.01
2014-2-1,60.4,40.9,22.6,40.5,26.5,16.9,86,62,22,30.25,30.15,7,1,7,0.00
2014-2-2,68.4,48.0,29.8,52.4,42.5,28.1,99,83,55,30.19,29.99,7,1,8,0.00
2014-2-3,72.7,60.6,46.9,60.9,53.4,40.3,97,79,45,30.21,29.88,11,3,11,0.22
2014-2-4,50.5,43.0,38.8,40.4,38.2,36.3,99,84,68,30.33,30.10,11,3,11,0.04
2014-2-5,65.5,46.6,33.8,50.6,38.5,29.5,99,77,37,30.15,29.89,15,4,15,0.32
2014-2-6,49.8,38.4,29.5,33.5,27.6,22.7,92,67,38,30.34,30.14,7,1,7,0.00
2014-2-7,57.4,41.3,27.9,35.2,30.8,23.9,91,69,38,30.34,30.24,9,1,9,0.00
2014-2-8,61.2,44.2,33.8,38.7,33.1,29.5,93,69,33,30.28,30.11,9,1,9,0.00
2014-2-9,61.7,46.3,31.3,40.6,35.9,18.2,94,70,43,30.17,29.75,14,3,14,0.00
2014-2-10,45.9,39.6,32.4,40.6,36.0,29.1,96,87,74,30.04,29.87,8,1,8,0.04
2014-2-11,38.7,34.4,32.2,35.4,31.2,29.0,94,88,81,30.16,30.02,6,1,8,0.08
2014-2-12,32.5,28.3,26.1,29.9,24.1,20.5,91,84,73,30.17,29.64,0,0,0,0.01
2014-2-13,52.7,37.8,30.0,38.0,31.4,27.0,93,79,52,29.65,29.47,8,2,8,0.15
2014-2-14,56.7,42.2,27.7,36.5,30.0,22.9,88,64,39,29.70,29.54,10,2,10,0.00
2014-2-15,55.0,43.7,34.9,40.0,27.7,12.4,98,60,19,29.91,29.45,13,4,13,0.08
2014-2-16,63.3,45.2,28.6,34.6,26.5,20.7,82,52,22,29.99,29.86,11,2,11,0.00
2014-2-17,56.5,42.8,28.8,40.2,30.9,26.2,92,66,37,30.15,29.98,9,1,9,0.00
2014-2-18,71.4,49.6,30.4,46.6,34.8,24.5,98,64,19,30.06,29.89,8,1,8,0.04
2014-2-19,76.6,62.7,50.9,58.8,54.8,46.9,99,78,48,29.94,29.81,19,3,19,0.04
2014-2-20,76.1,60.3,50.5,59.0,53.5,49.3,97,80,54,29.97,29.77,11,1,11,0.00
2014-2-21,67.5,58.2,36.1,60.4,41.8,17.2,99,63,15,29.91,29.68,13,3,13,0.64
2014-2-22,71.1,47.2,32.0,40.1,30.1,18.6,95,60,14,30.06,29.90,7,0,8,0.00
2014-2-23,72.7,55.8,41.4,39.9,33.3,22.1,85,46,17,29.96,29.77,8,1,8,0.00
2014-2-24,75.7,51.7,34.7,44.6,33.0,19.9,98,60,15,29.95,29.76,9,1,9,0.00
2014-2-25,69.3,49.4,32.0,42.2,34.6,24.8,87,61,27,29.92,29.73,11,2,11,0.00
2014-2-26,56.8,45.6,32.9,38.3,26.5,18.0,87,50,24,29.77,29.61,10,2,10,0.00
2014-2-27,59.5,44.4,24.4,25.9,19.0,11.4,85,42,20,29.80,29.65,10,2,10,0.00
2014-2-28,57.4,39.0,24.4,26.4,16.9,9.9,73,45,20,30.07,29.80,11,2,11,0.00
2014-3-1,64.6,46.6,35.1,39.8,30.9,21.8,85,56,33,30.18,30.03,8,2,8,0.00
2014-3-2,75.6,58.6,41.0,49.1,43.8,38.9,94,62,33,30.07,29.77,12,2,12,0.00
2014-3-3,65.8,51.1,35.2,59.5,45.0,29.3,97,81,59,30.03,29.62,19,3,19,0.05
2014-3-4,42.4,35.5,28.6,29.8,17.0,4.3,82,49,27,30.12,30.00,13,3,13,0.00
2014-3-5,61.5,43.4,32.4,34.4,26.9,17.3,87,55,28,30.06,29.91,10,1,10,0.00
2014-3-6,42.1,36.8,32.4,34.6,26.3,16.7,94,69,37,30.11,29.83,15,4,15,0.85
2014-3-7,54.9,42.7,34.7,46.9,39.2,32.7,99,88,62,29.88,29.75,14,4,14,0.78
2014-3-8,72.9,51.2,31.3,48.7,38.0,30.3,99,67,27,29.95,29.85,10,2,10,0.00
2014-3-9,79.2,56.6,37.2,46.8,41.2,35.4,99,63,27,29.96,29.85,11,2,11,0.00
2014-3-10,76.6,56.9,36.1,45.9,39.9,33.7,97,59,26,29.92,29.71,12,3,12,0.00
2014-3-11,83.7,62.9,40.3,50.3,43.4,36.7,95,55,22,29.75,29.57,13,2,13,0.00
2014-3-12,75.6,61.2,43.7,63.0,51.1,27.7,99,72,44,29.65,29.26,18,6,19,0.14
2014-3-13,59.7,44.1,31.6,28.7,19.1,10.5,76,40,20,30.06,29.65,15,3,18,0.00
2014-3-14,69.1,46.5,25.3,33.6,22.8,13.7,89,48,16,30.14,29.94,12,2,12,0.00
2014-3-15,74.3,55.9,37.8,42.1,36.8,27.0,90,54,25,29.94,29.85,9,2,9,0.00
2014-3-16,51.8,48.8,43.2,51.4,47.0,41.5,99,94,76,29.88,29.56,11,2,11,1.10
2014-3-17,42.8,37.5,34.3,42.4,36.4,32.0,99,96,91,29.78,29.58,15,3,15,0.30
2014-3-18,56.3,42.3,34.3,44.4,37.0,31.3,95,82,62,29.99,29.76,10,3,10,0.00
2014-3-19,59.2,47.9,42.1,48.0,44.2,41.8,99,88,65,30.00,29.85,10,2,10,0.01
2014-3-20,74.3,54.3,39.0,50.0,35.0,16.3,99,61,12,29.93,29.81,12,2,12,0.00
2014-3-21,74.3,50.3,29.8,40.6,29.7,19.4,96,57,14,30.02,29.90,7,1,7,0.00
2014-3-22,78.6,56.6,37.0,49.2,42.1,34.7,97,64,31,29.92,29.81,9,1,9,0.00
2014-3-23,58.8,49.6,37.0,51.9,45.2,34.8,97,85,62,29.98,29.77,11,1,11,0.01
2014-3-24,61.9,45.2,29.7,36.4,29.0,19.0,94,60,23,30.08,29.86,8,1,8,0.00
2014-3-25,53.8,42.8,35.4,44.0,30.7,15.2,99,67,27,29.93,29.69,18,4,18,0.17
2014-3-26,60.6,39.8,23.4,25.7,15.2,6.6,75,41,19,30.13,29.93,11,2,11,0.00
2014-3-27,71.4,47.5,33.1,38.2,24.9,20.2,74,48,16,30.10,29.75,8,1,8,0.00
2014-3-28,61.2,55.3,46.8,58.7,51.6,38.6,99,88,68,29.76,29.60,6,1,6,0.09
2014-3-29,71.8,60.9,55.9,64.1,58.0,55.7,99,91,63,29.62,29.22,12,2,12,0.21
2014-3-30,70.9,60.1,0.0,56.3,43.0,17.1,85,62,14,30.02,29.24,16,4,16,0.00
2014-3-31,84.0,56.4,33.1,42.3,30.6,18.6,92,51,11,30.08,29.98,5,1,8,0.00
2014-4-1,87.3,62.2,39.9,45.3,38.6,25.1,93,52,14,30.07,29.98,11,2,11,0.00
2014-4-2,89.6,65.3,43.9,47.5,39.0,23.4,89,48,12,30.07,29.99,11,2,11,0.00
2014-4-3,88.9,71.2,54.7,59.0,53.1,43.3,76,55,29,30.03,29.88,14,2,14,0.00
2014-4-4,82.0,68.1,52.7,61.9,54.9,49.6,92,65,36,29.90,29.77,14,4,14,0.00
2014-4-5,77.9,61.9,47.8,56.2,46.0,34.1,98,62,25,29.98,29.85,7,2,7,0.00
2014-4-6,62.6,56.4,49.8,45.7,40.3,31.6,85,56,43,30.11,29.97,10,2,10,0.00
2014-4-7,60.8,51.8,47.3,60.4,50.3,44.7,99,95,68,29.99,29.62,8,2,8,2.21
2014-4-8,69.1,56.7,47.3,58.9,47.7,20.4,99,77,18,30.22,29.58,11,2,11,2.47
2014-4-9,72.3,56.0,0.0,49.5,40.0,27.5,99,63,20,30.36,29.93,10,2,10,0.00
2014-4-10,77.9,56.9,36.3,46.7,39.4,32.9,99,61,23,30.06,29.94,11,2,11,0.00
2014-4-11,76.8,60.5,43.0,50.0,45.6,41.8,98,64,32,30.03,29.92,14,2,14,0.00
2014-4-12,89.8,65.4,45.3,55.6,48.8,41.6,99,64,23,30.02,29.84,13,1,13,0.00
2014-4-13,88.3,68.2,51.6,61.3,54.9,48.1,97,67,25,30.03,29.79,6,1,8,0.00
2014-4-14,88.3,74.6,0.0,66.0,57.3,48.1,99,59,10,29.97,29.74,6,1,6,0.34
2014-4-15,65.1,59.1,39.4,64.3,53.8,28.6,99,84,47,29.99,29.60,8,2,8,0.83
2014-4-16,64.8,47.0,34.0,37.0,27.3,20.6,78,50,22,30.29,29.99,11,2,11,0.00
2014-4-17,69.8,51.0,36.3,41.0,33.1,26.6,89,56,23,30.41,30.26,11,2,11,0.00
2014-4-18,56.7,51.0,46.6,48.2,42.5,36.2,99,74,58,30.30,30.07,8,2,8,0.35
2014-4-19,55.9,52.2,48.4,54.0,49.7,46.2,99,91,75,30.12,29.98,14,4,14,0.12
2014-4-20,79.0,60.8,46.8,47.9,41.7,30.1,85,55,20,30.19,30.09,17,3,17,0.00
2014-4-21,79.2,59.8,40.6,52.4,44.3,-29.8,98,64,1,30.12,29.88,99,2,99,0.00
2014-4-22,77.9,62.9,50.9,65.7,55.5,49.1,95,79,50,29.88,29.70,14,3,14,0.00
2014-4-23,89.2,65.5,50.4,57.6,47.4,32.4,99,61,17,30.01,29.71,7,1,7,0.00
2014-4-24,82.0,61.8,45.1,51.0,42.5,35.6,85,55,24,30.16,30.00,8,1,8,0.00
2014-4-25,81.9,66.8,54.1,63.9,55.6,49.4,93,71,34,30.00,29.83,15,2,15,0.00
2014-4-26,84.2,64.3,0.0,54.6,48.6,39.3,98,64,23,30.09,29.77,6,1,6,0.00
2014-4-27,88.3,67.7,49.3,64.0,55.6,48.3,97,70,35,29.91,29.80,6,1,6,0.00
2014-4-28,83.1,71.7,60.4,66.8,63.0,59.3,97,76,51,29.86,29.73,6,1,6,0.00
2014-4-29,79.0,72.1,62.8,67.4,64.6,59.5,92,78,60,29.88,29.69,5,1,5,0.00
2014-4-30,73.8,67.4,0.0,67.1,63.0,59.0,99,86,72,29.93,29.77,4,1,4,0.05
2014-5-1,78.3,69.0,59.5,66.5,56.6,46.5,92,67,45,29.94,29.86,1,0,1,0.00
2014-5-2,78.1,63.6,51.6,54.3,48.3,41.8,94,62,32,29.99,29.85,1,0,1,0.00
2014-5-3,81.7,66.2,48.2,54.8,48.7,42.6,95,58,27,30.00,29.87,0,0,0,0.00
2014-5-4,90.5,70.9,50.5,58.2,52.8,47.5,96,60,25,30.05,29.93,1,0,1,0.00
2014-5-5,95.5,76.9,56.5,64.2,57.2,48.2,92,56,22,30.02,29.86,1,0,1,0.00
2014-5-6,91.6,76.2,60.4,63.6,58.6,52.2,92,59,28,29.99,29.90,1,0,1,0.00
2014-5-7,91.2,74.8,58.1,65.7,60.0,56.1,95,65,33,30.13,29.98,1,0,1,0.00
2014-5-8,92.8,74.8,56.5,66.7,61.2,54.8,95,67,36,30.23,30.11,1,0,1,0.00
2014-5-9,86.7,71.6,62.2,74.6,66.7,60.7,97,86,55,30.18,30.08,1,0,1,0.05
2014-5-10,82.2,70.7,64.2,72.0,67.7,63.5,99,91,63,30.13,30.05,1,0,1,0.02
2014-5-11,89.8,74.7,63.3,72.4,67.2,63.1,99,80,49,30.17,30.08,0,0,0,0.00
2014-5-12,92.5,77.2,62.1,73.4,67.2,61.2,98,75,44,30.22,30.10,1,0,1,0.00
2014-5-13,95.0,78.9,67.8,73.8,68.3,64.4,98,73,44,30.19,30.09,0,0,0,0.00
2014-5-14,87.8,76.1,64.6,71.3,67.1,63.1,97,76,47,30.18,30.00,0,0,0,0.02
2014-5-15,76.1,70.3,61.9,72.1,68.0,55.0,99,93,73,30.02,29.87,1,0,1,1.59
2014-5-16,72.9,62.2,50.5,55.1,50.0,43.9,98,68,39,30.11,28.48,1,0,1,0.00
2014-5-17,70.3,57.4,0.0,50.4,47.4,41.5,98,71,37,30.11,29.88,8,1,8,0.00
2014-5-18,60.4,55.6,50.5,56.7,53.6,50.0,98,93,85,30.17,29.91,4,0,4,0.09
2014-5-19,75.7,60.8,47.7,57.8,52.2,47.4,99,77,44,30.05,29.95,7,1,7,0.00
2014-5-20,79.5,66.0,50.7,64.6,58.4,50.2,99,79,54,30.03,29.86,8,1,8,0.00
2014-5-21,86.5,73.3,59.0,66.5,62.2,58.2,98,71,46,29.90,29.75,8,2,8,0.00
2014-5-22,88.9,77.2,65.8,70.6,64.2,60.9,88,67,44,29.83,29.71,8,1,8,0.00
2014-5-23,91.6,75.1,63.3,74.2,66.8,61.9,96,77,48,29.83,29.72,5,1,5,0.01
2014-5-24,84.6,72.1,60.3,66.9,61.4,54.7,98,72,40,29.91,29.78,6,1,6,0.00
2014-5-25,84.6,70.5,62.1,69.4,64.2,60.6,98,82,52,29.95,29.86,8,1,8,0.27
2014-5-26,86.2,71.2,58.8,70.2,65.0,58.6,99,83,51,29.99,29.86,7,1,7,0.01
2014-5-27,86.4,75.1,65.5,70.9,67.1,63.8,97,78,51,29.91,29.77,7,1,7,0.08
2014-5-28,86.7,74.5,61.9,70.8,65.7,61.3,99,77,46,29.85,29.74,5,1,5,0.00
2014-5-29,86.5,73.6,64.0,71.1,67.6,62.9,98,83,53,29.84,29.65,64,1,64,0.00
2014-5-30,87.3,73.4,68.2,72.2,67.4,64.9,96,83,55,29.85,29.80,4,1,4,0.00
2014-5-31,79.3,71.6,64.6,69.9,67.6,64.3,99,88,69,29.93,29.84,7,1,7,0.00
2014-6-1,83.3,71.5,0.0,66.7,63.1,59.3,97,76,51,30.06,29.92,7,1,7,0.00
2014-6-2,82.0,68.5,58.8,63.1,57.9,52.7,97,72,40,29.94,29.82,4,1,4,0.00
2014-6-3,88.9,72.1,56.8,70.2,62.8,56.0,97,75,45,29.83,29.65,4,1,4,0.00
2014-6-4,89.2,71.2,64.4,71.3,66.5,63.6,98,87,45,29.67,29.51,4,0,4,0.00
2014-6-5,92.7,80.9,73.4,71.7,68.4,64.2,85,67,45,29.55,29.44,8,2,8,0.00
2014-6-6,90.0,78.0,68.4,70.7,67.0,62.1,96,71,43,29.62,29.51,5,1,5,0.00
2014-6-7,85.6,76.7,68.7,71.8,68.9,65.6,94,78,60,29.68,29.56,8,1,8,0.00
2014-6-8,86.4,76.2,69.1,77.1,69.1,64.2,99,80,51,29.65,29.51,5,1,5,0.60
2014-6-9,88.2,76.2,62.8,71.2,66.6,61.6,97,75,47,29.61,29.53,8,1,8,0.00
2014-6-10,90.5,77.9,67.5,71.2,67.4,64.2,96,73,47,29.65,29.57,10,1,10,0.00
2014-6-11,84.0,74.0,66.0,71.8,68.1,63.6,99,83,57,29.67,29.50,8,1,8,0.41
2014-6-12,82.8,72.0,65.5,71.3,67.6,63.7,99,87,58,29.61,29.49,4,1,4,0.07
2014-6-13,87.4,73.7,64.6,70.2,66.2,62.2,98,80,51,29.62,29.51,7,1,7,0.00
2014-6-14,89.4,74.9,61.0,70.4,65.1,57.4,97,75,46,29.73,29.61,78,1,78,0.00
2014-6-15,92.5,77.7,65.7,70.5,67.3,63.9,98,74,44,29.84,29.72,5,1,5,0.00
2014-6-16,95.0,79.0,68.0,73.6,69.4,65.4,96,75,43,29.88,29.78,6,1,6,0.00
2014-6-17,92.7,79.5,67.3,73.4,68.9,63.5,97,73,42,29.88,29.76,6,1,6,0.00
2014-6-18,93.6,79.7,68.7,74.1,70.7,67.4,96,76,47,29.83,29.75,5,1,5,0.00
2014-6-19,93.6,81.1,68.7,74.3,68.6,61.5,97,69,43,29.83,29.71,12,1,12,0.00
2014-6-20,95.7,79.8,64.6,71.8,67.0,63.6,98,69,42,29.77,29.62,6,1,6,0.00
2014-6-21,97.2,79.7,66.4,72.2,67.6,64.9,96,70,41,29.64,29.50,5,1,5,0.00
2014-6-22,92.5,79.5,67.8,70.2,66.1,59.8,96,68,37,29.62,29.51,7,1,7,0.00
2014-6-23,88.5,79.2,68.9,73.2,69.1,65.3,93,73,50,29.77,29.61,8,1,8,0.00
2014-6-24,85.1,75.7,67.8,75.7,70.5,66.2,98,85,60,29.79,29.67,4,1,4,0.13
2014-6-25,89.1,78.7,69.3,72.4,69.6,66.1,98,76,48,29.72,29.62,8,2,8,0.00
2014-6-26,94.8,78.6,66.9,71.7,66.7,59.2,97,71,36,29.73,29.60,5,1,5,0.00
2014-6-27,86.9,77.7,73.0,73.4,70.5,67.7,95,79,60,29.79,29.65,5,1,5,0.00
2014-6-28,86.2,76.4,70.7,72.8,70.6,69.0,98,84,59,29.88,29.78,5,1,8,0.19
2014-6-29,86.7,76.2,70.2,74.4,71.5,68.7,98,87,61,29.92,29.79,6,1,6,0.00
2014-6-30,80.1,72.7,67.6,74.5,70.6,67.1,99,93,76,29.82,29.65,4,0,4,0.71
2014-7-1,90.7,79.2,68.2,76.3,71.4,67.6,98,80,51,29.68,29.57,4,1,4,0.00
2014-7-2,95.7,81.8,69.6,76.2,72.7,68.6,97,77,49,29.65,29.60,4,1,4,0.00
2014-7-3,94.6,80.4,71.4,75.4,71.7,62.7,97,76,51,29.66,29.56,8,1,8,0.00
2014-7-4,88.9,76.4,65.3,64.8,61.9,56.8,90,63,42,29.85,29.65,6,1,6,0.00
2014-7-5,84.6,74.5,64.6,61.9,56.9,52.9,87,56,39,29.95,29.84,11,2,11,0.00
2014-7-6,89.4,74.1,60.6,70.4,63.3,59.0,95,72,44,29.87,29.72,5,1,5,0.00
2014-7-7,89.6,77.6,64.4,73.0,68.1,63.3,97,75,47,29.76,29.63,5,1,5,0.00
2014-7-8,91.0,78.3,67.8,76.3,68.2,64.5,95,74,46,29.74,29.63,8,1,11,0.02
2014-7-9,88.9,77.3,70.5,75.9,70.0,67.3,94,79,52,29.73,29.64,7,1,7,0.12
2014-7-10,88.3,76.4,70.7,73.6,70.9,68.8,97,84,59,29.79,29.67,5,1,5,0.00
2014-7-11,91.8,78.2,67.6,72.9,69.6,66.6,98,77,47,29.89,29.77,7,1,7,0.00
2014-7-12,93.0,79.8,69.1,74.6,69.3,64.7,97,74,44,29.90,29.79,5,1,5,0.00
2014-7-13,91.6,79.3,68.4,73.9,70.0,66.9,96,76,47,29.84,29.70,5,1,5,0.00
2014-7-14,95.2,80.5,70.3,74.7,70.1,68.0,94,73,44,29.73,29.59,8,1,8,0.00
2014-7-15,91.4,79.6,71.2,75.6,70.6,66.2,97,76,45,29.60,29.45,12,1,12,0.01
2014-7-16,86.4,76.7,66.2,70.2,64.4,57.0,96,69,45,29.61,29.51,7,1,7,0.00
2014-7-17,85.5,75.8,64.8,66.2,59.4,51.4,80,58,35,29.74,29.61,9,1,9,0.00
2014-7-18,77.9,72.0,68.5,73.0,69.1,65.1,99,91,76,29.84,29.74,6,1,6,0.21
2014-7-19,68.9,67.6,64.9,68.2,67.0,64.7,99,98,96,29.82,29.75,5,1,5,0.56
2014-7-20,81.0,71.4,64.9,71.7,67.7,64.3,99,89,70,29.81,29.71,6,1,6,0.02
2014-7-21,81.0,75.1,71.6,75.9,71.5,69.2,97,89,75,29.80,29.71,8,1,8,0.56
2014-7-22,84.6,76.1,70.3,73.7,70.6,68.9,96,84,66,29.84,29.75,7,1,7,0.00
2014-7-23,91.9,79.5,69.8,76.1,70.9,68.3,97,77,50,29.80,29.64,5,1,5,0.00
2014-7-24,89.2,78.9,71.6,74.5,71.7,67.5,96,80,54,29.65,29.55,6,1,6,0.00
2014-7-25,89.6,78.3,70.0,73.4,69.9,67.5,95,77,52,29.73,29.63,9,1,9,0.00
2014-7-26,90.9,78.7,66.7,73.0,67.5,63.1,96,72,41,29.73,29.64,4,1,4,0.00
2014-7-27,94.6,81.9,71.1,74.5,71.0,68.2,93,72,47,29.68,29.55,8,1,8,0.00
2014-7-28,90.1,81.0,67.3,73.9,67.0,57.6,93,65,36,29.61,29.51,8,2,9,0.00
2014-7-29,87.6,73.4,59.9,64.5,59.4,55.1,95,65,36,29.67,29.58,7,1,7,0.00
2014-7-30,84.7,72.9,61.2,64.7,58.9,54.3,87,63,43,29.75,29.67,10,1,10,0.00
2014-7-31,69.6,66.8,64.9,68.1,65.4,61.8,99,95,83,29.80,29.72,4,1,4,2.04
2014-8-1,72.9,67.8,63.9,66.5,64.8,63.0,99,91,74,29.79,29.73,10,2,10,0.67
2014-8-2,79.0,71.8,67.3,70.1,66.3,64.3,94,83,67,29.81,29.72,7,1,7,0.00
2014-8-3,88.0,75.6,66.7,71.0,67.9,65.6,97,79,53,29.80,29.68,8,1,8,0.00
2014-8-4,87.6,75.8,66.9,72.0,68.2,65.8,97,79,54,29.78,29.69,7,1,7,0.00
2014-8-5,90.9,76.4,64.9,71.7,67.6,63.8,97,77,48,29.76,29.67,5,1,5,0.00
2014-8-6,91.2,77.1,64.2,71.6,66.5,62.8,96,73,42,29.72,29.62,4,1,4,0.00
2014-8-7,93.4,78.6,66.7,72.5,68.2,64.0,96,74,42,29.71,29.62,5,1,5,0.00
2014-8-8,74.5,71.8,70.0,72.8,69.9,68.1,96,94,90,29.80,29.67,4,0,4,0.84
2014-8-9,86.2,76.1,68.9,74.6,71.4,68.0,98,86,64,29.76,29.64,8,1,8,0.00
2014-8-10,73.9,70.0,66.4,71.2,67.6,65.8,98,92,85,29.77,29.57,9,2,9,0.86
2014-8-11,84.9,75.6,70.0,73.6,70.2,67.6,93,84,64,29.75,29.59,4,1,4,0.00
2014-8-12,92.7,77.3,70.3,77.1,72.1,68.9,97,85,52,29.62,29.46,9,1,9,0.24
2014-8-13,86.7,74.7,66.2,70.6,64.8,59.6,97,74,45,29.68,29.53,6,1,6,0.00
2014-8-14,87.8,72.7,61.7,67.8,62.8,59.7,95,74,44,29.75,29.65,4,1,4,0.00
2014-8-15,89.6,74.2,62.1,70.4,64.8,60.6,96,76,42,29.73,29.63,4,0,4,0.00
2014-8-16,90.7,75.0,63.9,71.1,66.6,62.4,96,78,45,29.73,29.65,4,0,4,0.00
2014-8-17,92.1,77.6,65.8,74.9,69.1,64.7,96,77,46,29.72,29.62,5,1,5,0.00
2014-8-18,84.6,76.8,70.7,74.5,69.9,67.1,94,80,59,29.66,29.52,7,1,7,0.00
2014-8-19,89.1,77.9,69.4,74.5,70.2,67.4,94,79,53,29.59,29.51,5,1,5,0.00
2014-8-20,94.3,77.5,68.0,75.7,69.4,65.8,96,78,48,29.76,29.58,5,1,5,0.00
2014-8-21,95.7,79.0,66.0,75.0,69.0,64.8,96,75,42,29.81,29.70,4,1,4,0.00
2014-8-22,94.5,80.8,70.2,76.6,71.7,68.4,96,77,48,29.76,29.64,4,1,4,0.00
2014-8-23,97.7,79.6,69.3,77.1,72.2,67.8,95,81,43,29.67,29.56,4,0,4,0.02
2014-8-24,82.4,77.0,72.7,74.2,70.8,67.0,96,82,66,29.77,29.60,8,2,9,0.01
2014-8-25,85.1,74.6,64.6,67.4,61.4,57.2,88,66,43,29.80,29.72,11,2,11,0.00
2014-8-26,84.7,71.6,59.7,63.5,61.2,58.2,95,73,46,29.84,29.73,8,1,8,0.00
2014-8-27,89.8,72.9,59.2,64.8,60.9,54.7,95,71,34,29.80,29.68,7,1,7,0.00
2014-8-28,94.6,75.3,60.4,70.0,64.2,58.7,95,73,40,29.73,29.64,6,0,6,0.00
2014-8-29,94.8,78.6,64.0,72.4,67.1,62.3,96,72,42,29.80,29.69,7,1,7,0.00
2014-8-30,93.4,78.9,67.1,75.2,71.2,65.6,95,79,51,29.86,29.75,6,1,6,0.00
2014-8-31,88.0,78.1,71.2,75.9,72.2,68.9,97,83,59,29.85,29.74,5,1,5,0.39
2014-9-1,90.9,79.1,69.4,76.2,71.2,65.5,96,79,45,29.81,29.71,4,1,4,0.00
2014-9-2,94.3,82.3,70.0,74.8,71.1,68.1,95,72,47,29.77,29.63,6,1,6,0.00
2014-9-3,94.8,78.3,70.9,73.7,70.7,68.8,96,80,47,29.79,29.65,4,1,6,0.57
2014-9-4,87.1,76.7,70.9,75.6,72.2,70.0,98,87,61,29.85,29.76,4,0,4,0.01
2014-9-5,90.3,78.1,70.0,74.4,71.0,68.1,96,80,53,29.89,29.73,5,1,5,0.00
2014-9-6,91.8,78.2,69.1,74.7,71.2,67.9,96,81,54,29.77,29.62,5,0,5,0.00
2014-9-7,87.8,78.3,71.6,73.0,70.9,69.4,95,79,56,29.74,29.62,7,1,7,0.07
2014-9-8,75.0,72.0,70.2,71.0,67.8,65.1,95,87,76,29.80,29.69,10,2,10,0.02
2014-9-9,78.4,72.8,67.1,69.4,66.9,65.3,94,82,70,29.82,29.74,6,1,6,0.00
2014-9-10,84.4,72.4,63.9,70.3,66.9,62.7,97,84,57,29.82,29.70,6,0,6,0.00
2014-9-11,88.7,75.9,66.9,76.6,70.5,66.0,97,84,60,29.75,29.65,6,1,6,0.00
2014-9-12,91.9,78.9,70.3,75.2,72.3,68.9,96,82,55,29.74,29.64,5,1,5,0.24
2014-9-13,86.5,75.7,70.2,76.8,72.8,68.3,98,91,64,29.81,29.69,5,0,5,0.24
2014-9-14,71.8,65.7,63.0,69.3,63.0,59.8,97,91,82,29.93,29.81,9,2,9,0.45
2014-9-15,76.5,69.5,64.4,70.2,66.6,63.3,97,91,77,29.91,29.79,4,0,4,0.01
2014-9-16,88.0,75.1,66.7,72.9,68.9,63.5,97,83,55,29.81,29.60,8,1,8,0.04
2014-9-17,78.6,70.3,65.5,68.9,66.3,64.2,97,88,69,29.65,29.57,7,1,7,0.00
2014-9-18,82.8,70.9,62.2,68.4,64.9,61.3,97,83,53,29.70,29.59,5,1,5,0.00
2014-9-19,79.0,69.9,65.7,70.5,65.0,62.1,98,85,66,29.86,29.69,11,1,11,0.43
2014-9-20,85.8,71.4,62.4,65.3,62.3,57.7,94,75,45,29.87,29.70,9,2,9,0.00
2014-9-21,85.5,68.1,57.7,68.8,62.9,56.9,97,85,53,29.72,29.54,6,1,6,0.00
2014-9-22,72.9,67.8,62.4,68.5,64.6,58.7,94,89,81,29.72,29.59,3,0,3,0.00
2014-9-23,70.0,62.2,58.3,59.1,54.9,52.3,94,78,60,29.94,29.79,8,2,8,0.00
2014-9-24,72.0,66.0,56.1,59.2,54.1,47.6,87,66,50,29.98,29.89,11,3,11,0.00
2014-9-25,72.7,67.0,62.6,63.9,61.8,59.2,93,84,71,29.92,29.81,8,2,8,0.00
2014-9-26,70.9,67.2,62.1,64.3,62.7,60.0,95,86,78,29.88,29.81,8,2,9,0.00
2014-9-27,81.3,70.6,64.4,63.7,61.4,58.3,90,74,49,29.88,29.79,11,2,11,0.00
2014-9-28,74.7,68.6,63.1,64.9,61.8,58.6,93,79,67,29.85,29.75,6,1,6,0.00
2014-9-29,70.7,66.9,64.4,66.1,64.5,63.0,97,92,82,29.75,29.63,7,0,7,0.07
2014-9-30,86.9,69.5,58.5,67.0,62.7,58.2,99,82,46,29.65,29.53,4,0,4,0.00
2014-10-1,88.7,68.6,57.7,67.6,61.6,56.9,97,81,44,29.71,29.59,5,0,5,0.00
2014-10-2,89.8,69.9,58.1,68.8,61.8,57.0,97,78,43,29.79,29.70,4,0,4,0.00
2014-10-3,75.9,68.4,62.4,71.4,65.7,60.3,96,91,82,29.72,29.49,6,1,6,0.30
2014-10-4,65.5,58.8,55.8,64.0,55.0,52.8,96,87,85,29.51,29.46,3,1,3,0.00
2014-10-5,57.7,57.7,57.7,53.3,53.3,53.3,85,85,85,29.51,29.51,2,2,2,0.00
2014-10-6,74.8,60.7,57.6,56.6,53.8,53.3,89,79,49,29.98,29.51,7,1,7,0.00
2014-10-7,81.3,66.4,54.1,62.1,56.6,51.9,95,73,48,30.05,29.91,8,1,8,0.02
2014-10-8,85.6,72.0,59.4,67.7,63.0,58.3,98,77,52,30.01,29.92,7,1,7,0.01
2014-10-9,89.1,69.0,56.1,66.0,60.3,55.3,97,78,35,30.00,29.91,7,1,7,0.07
2014-10-10,81.1,71.4,60.4,70.7,66.4,60.2,99,85,64,29.95,29.83,5,1,5,0.01
2014-10-11,84.4,72.6,65.3,71.8,67.0,64.0,96,84,62,29.90,29.81,8,1,8,0.00
2014-10-12,67.6,62.2,58.1,67.1,60.9,57.2,98,95,91,30.06,29.87,8,2,8,1.38
2014-10-13,69.4,63.4,58.1,67.3,62.3,57.6,99,96,90,30.06,29.90,8,1,8,0.02
2014-10-14,71.4,68.8,61.0,70.5,67.8,60.4,99,96,92,29.91,29.59,9,1,9,1.45
2014-10-15,71.8,59.9,51.8,60.4,54.6,50.4,99,84,53,29.73,29.67,8,1,8,0.01
2014-10-16,70.5,60.0,50.5,55.5,52.9,49.2,95,79,54,29.76,29.63,6,1,6,0.00
2014-10-17,55.8,52.2,44.2,54.9,51.3,43.7,99,97,95,29.77,29.72,2,0,2,0.00
2014-10-18,55.8,55.8,55.8,54.9,54.9,54.9,97,97,97,29.76,29.76,1,1,2,0.00
2014-10-19,55.8,55.8,55.8,54.9,54.9,54.9,97,97,97,29.76,29.76,1,1,2,0.00
2014-10-20,55.8,55.8,55.8,54.9,54.9,54.9,97,97,97,29.76,29.76,1,1,2,0.00
2014-10-21,55.8,55.8,55.8,54.9,54.9,54.9,97,97,97,29.76,29.76,1,1,2,0.00
2014-10-22,55.8,55.8,55.8,54.9,54.9,54.9,97,97,97,29.76,29.76,1,1,2,0.00
2014-10-23,66.2,54.9,47.7,61.2,53.4,46.3,97,95,69,30.04,29.76,2,1,2,0.00
2014-10-24,71.4,54.2,41.2,53.5,46.7,40.4,98,80,42,30.00,29.90,5,0,5,0.00
2014-10-25,77.7,55.5,39.7,53.7,46.5,39.5,99,77,35,29.97,29.88,5,0,5,0.00
2014-10-26,86.0,60.9,44.2,62.6,52.2,43.7,99,78,37,29.91,29.83,5,1,5,0.00
2014-10-27,86.4,61.3,46.0,58.6,51.3,45.2,99,76,29,30.04,29.91,4,0,4,0.00
2014-10-28,83.3,62.7,49.1,62.7,55.2,48.3,98,80,47,30.04,29.97,8,1,8,0.00
2014-10-29,73.0,62.2,50.7,62.2,56.6,47.0,96,83,64,29.98,29.85,9,1,9,0.00
2014-10-30,72.9,53.0,39.4,49.4,43.0,37.6,99,74,30,29.98,29.87,5,1,5,0.00
2014-10-31,69.3,52.3,39.6,49.3,43.7,39.0,99,75,47,29.87,29.69,6,1,6,0.00
2014-11-1,52.2,43.2,34.0,42.2,35.5,31.4,99,76,52,30.04,29.67,12,3,12,0.43
2014-11-2,57.9,42.1,28.9,32.3,26.0,15.4,95,60,21,30.27,30.03,14,2,14,0.00
2014-11-3,66.6,44.5,27.9,39.1,30.0,21.3,94,66,19,30.36,30.25,4,1,4,0.00
2014-11-4,73.4,51.3,36.5,44.6,37.5,23.8,98,68,18,30.26,30.14,6,1,6,0.00
2014-11-5,67.5,55.3,45.7,54.7,49.3,42.7,94,81,59,30.20,30.06,4,0,4,0.00
2014-11-6,72.3,60.3,45.1,62.7,50.3,32.3,99,73,39,30.06,29.73,11,2,11,0.00
2014-11-7,67.8,47.1,33.8,41.9,36.4,32.0,99,71,30,29.97,29.85,8,1,8,0.00
2014-11-8,64.0,45.9,34.3,42.7,37.9,33.2,99,77,41,29.98,29.86,6,1,6,0.00
2014-11-9,71.6,48.9,36.1,46.9,40.1,34.9,99,77,31,29.93,29.82,5,1,5,0.00
2014-11-10,74.1,50.2,35.4,51.5,42.2,34.3,99,78,41,30.01,29.92,4,1,4,0.00
2014-11-11,79.0,51.5,35.2,53.2,41.4,34.2,99,75,31,29.96,29.84,5,1,5,0.00
2014-11-12,79.7,58.5,41.7,59.0,50.4,40.7,99,78,45,29.93,29.85,6,1,7,0.00
2014-11-13,71.4,53.0,41.7,50.6,44.2,35.2,99,75,40,29.96,29.85,4,1,5,0.00
2014-11-14,47.1,41.2,37.6,35.2,27.3,23.2,75,58,43,30.12,29.92,7,2,8,0.00
2014-11-15,47.7,38.4,28.6,25.3,21.5,9.9,84,53,23,30.12,29.80,7,1,8,0.00
2014-11-16,60.8,46.2,29.7,43.2,31.8,20.8,86,60,26,29.83,29.51,5,1,5,0.00
2014-11-17,55.6,45.7,33.8,54.6,43.0,26.7,99,90,73,29.51,29.17,11,2,11,0.78
2014-11-18,39.4,31.4,22.1,27.2,15.2,5.0,77,52,28,29.81,29.47,8,2,8,0.01
2014-11-19,47.3,31.2,16.3,24.1,15.0,7.1,84,56,22,29.88,29.72,6,1,6,0.00
2014-11-20,60.4,44.1,27.9,33.7,28.0,20.4,83,56,26,29.73,29.57,11,2,11,0.00
2014-11-21,66.9,43.7,30.9,36.6,29.4,22.3,91,64,21,29.97,29.70,8,1,8,0.00
2014-11-22,61.0,42.4,27.7,37.5,26.1,13.3,86,59,22,30.02,29.77,6,1,6,0.00
2014-11-23,55.8,46.3,42.1,55.5,44.4,35.5,99,93,63,29.77,29.21,8,1,8,1.81
2014-11-24,72.9,61.9,54.5,64.4,58.0,52.2,99,89,59,29.43,29.23,8,2,8,0.00
2014-11-25,62.2,53.2,48.7,56.4,47.7,42.6,98,83,53,29.57,29.41,5,0,5,0.07
2014-11-26,59.0,49.3,42.1,50.8,41.8,27.9,99,78,43,29.54,29.39,7,1,7,0.46
2014-11-27,53.8,43.5,30.0,35.6,30.0,25.4,90,61,36,29.80,29.47,9,3,9,0.00
2014-11-28,50.4,34.9,24.1,28.5,23.7,17.9,91,68,30,29.89,29.75,5,1,5,0.00
2014-11-29,58.8,41.1,26.2,37.7,28.9,22.4,93,67,27,29.80,29.69,9,1,9,0.00
2014-11-30,68.7,51.5,34.7,53.7,43.1,31.2,95,74,57,29.83,29.72,10,2,10,0.00
2014-12-1,72.9,52.0,36.3,57.2,45.8,34.8,99,82,53,29.89,29.77,8,1,9,0.00
2014-12-2,72.0,51.5,41.4,55.6,46.5,41.1,99,84,55,29.84,29.77,9,1,9,0.00
2014-12-3,64.2,52.5,45.7,57.6,50.6,44.4,99,93,78,29.81,29.69,9,1,9,0.01
2014-12-4,65.5,54.5,44.6,53.4,48.9,43.8,99,83,59,29.86,29.73,11,1,11,0.00
2014-12-5,55.2,50.8,49.1,50.1,48.4,45.2,98,92,70,29.93,29.82,7,1,7,0.12
2014-12-6,52.7,49.9,45.3,52.2,49.1,42.9,99,97,85,29.83,29.56,8,1,8,0.47
2014-12-7,48.9,46.8,44.2,43.7,40.5,40.3,92,79,77,29.69,29.64,5,4,8,0.00
2014-12-8,46.8,46.8,46.8,40.3,40.3,40.3,78,78,78,29.69,29.69,4,4,5,0.00
2014-12-9,46.8,46.8,46.8,40.3,40.3,40.3,78,78,78,29.69,29.69,4,4,5,0.00
2014-12-10,46.8,46.8,46.8,40.3,40.3,40.3,78,78,78,29.69,29.69,4,4,5,0.00
2014-12-11,46.8,46.8,46.8,40.3,40.3,40.3,78,78,78,29.69,29.69,4,4,5,0.00
2014-12-12,46.8,46.8,46.8,40.3,40.3,40.3,78,78,78,29.69,29.69,4,4,5,0.00
2014-12-13,67.6,47.2,31.1,40.3,34.1,18.9,85,67,16,29.92,29.69,5,2,5,0.00
2014-12-14,74.1,43.9,26.4,39.0,27.1,18.2,95,63,13,30.64,29.80,4,0,4,0.00
2014-12-15,63.5,42.3,28.4,38.5,32.5,26.8,96,73,32,29.93,29.84,8,1,8,0.00
2014-12-16,63.1,50.0,36.1,54.6,43.6,32.8,99,80,52,29.91,29.69,13,3,14,0.07
2014-12-17,62.6,42.5,28.9,45.3,35.6,28.2,99,80,43,29.99,29.88,7,1,7,0.00
2014-12-18,61.7,45.1,32.0,41.7,32.9,24.3,99,69,26,30.00,29.88,7,1,7,0.00
2014-12-19,61.2,44.2,30.4,39.8,34.8,29.1,99,73,37,29.99,29.89,7,1,8,0.00
2014-12-20,45.0,43.5,41.9,43.1,41.6,39.1,97,93,86,30.06,29.96,4,1,4,0.05
2014-12-21,54.7,47.3,42.8,44.0,42.2,40.9,95,83,66,30.07,29.96,8,2,8,0.00
2014-12-22,45.5,42.6,39.9,42.8,41.7,39.7,99,97,89,29.98,29.80,10,3,10,0.25
2014-12-23,45.5,42.5,39.6,44.7,42.1,39.3,99,98,97,29.86,29.65,7,1,8,0.60
2014-12-24,53.6,50.0,45.7,52.9,49.5,44.9,99,98,90,29.71,29.49,8,2,8,1.26
2014-12-25,57.2,48.0,42.3,45.8,38.6,34.9,90,71,46,29.96,29.60,9,4,9,0.00
2014-12-28,34.2,34.2,34.2,32.6,32.6,32.6,94,94,94,30.11,30.11,0,0,0,0.00
2014-12-29,34.2,34.2,34.2,32.6,32.6,32.6,94,94,94,30.11,30.11,0,0,0,0.00
2014-12-30,34.2,34.2,34.2,32.6,32.6,32.6,94,94,94,30.11,30.11,0,0,0,0.00
2014-12-31,34.2,34.2,34.2,32.6,32.6,32.6,94,94,94,30.11,30.11,0,0,0,0.00
2015-1-1,34.2,34.2,34.2,32.6,32.6,32.6,94,94,94,30.11,30.11,0,0,0,0.00
2015-1-2,34.2,34.2,34.2,32.6,32.6,32.6,94,94,94,30.11,30.11,0,0,0,0.00